Etusivu
METAR-TAF:

METAR-TAF

Lentoasemat :

San Andrés, Kolumbia

Leveyspiiri: 12-35N, Pituuspiiri: 081-43W, korkeus merenpinnasta: 1 m

Tämänhetkinen sää

Tämä raportti tehtiin 51 minuuttia sitten, kello 12.00 UTC
Tuuli 8 kn koillisesta, vaihdellen pohjoisen/koillisen ja idän välillä
Lämpötila 28°C
Kosteus 74%
Ilmanpaine 1013 hPa
Näkyvyys 10 km tai enemmän
Hajanaisia pilviä 1800 ft:n korkeudessa

METAR: SKSP 081200Z 05008KT 020V080 9999 SCT018 28/23 A2992

Aika: 07:51 (12:51 UTC)

Sääennuste

Tämä raportti tehtiin 2 tuntia ja 21 minuuttia sitten, kello 10.30 UTC
Ennuste voimassa 08. päivästä klo 12 UTC - 09. päivään klo 12 UTC
Tuuli 10 kn koillisesta
Näkyvyys 10 km tai enemmän
Hajanaisia pilviä 1700 ft:n korkeudessa

TAF: SKSP 081030Z 0812/0912 04010KT 9999 SCT017 TX31/0819Z TN26/0910Z

Säähavainnot ja -ennusteet yli 4000 lentoasemalta (METAR- ja TAF-raportit).

Käytössä olevat sääasemat on merkitty karttaan keltaisilla ja punaisilla pisteillä.

Aseta hiiri pisteen päälle nähdäksesi sääaseman nimen.

Klikkaa sitten nähdäksesi säähavainnot ja -ennusteet.

Kartan vaihtaminen: klikkaa mustalla rastilla varustettuja vihreitä pisteitä, niin voit zoomata sisään; viivalla varustettua vihreää pistettä, niin voit zoomata ulos tai vihreitä nuolia, niin pääset viereisille kartoille.


METAR-TAF: